Time;durP1;ratioP1;P1;durP2;ratioP2;P2;SDS_P1;SDS_P2;PMS_P1;PMS_P2;Temp;Humidity;BMP_temperature;BMP_pressure;BME280_temperature;BME280_humidity;BME280_pressure;Samples;Min_cycle;Max_cycle;Signal;HPM_P1;HPM_P2
2022/04/26 03:36:49;;;;;;;9.15;6.45;;;23.30;47.50;;;;;;6261149;27;80967;-62
2022/04/26 03:39:50;;;;;;;11.68;6.90;;;23.30;47.30;;;;;;6254661;27;80325;-61
2022/04/26 03:42:51;;;;;;;11.73;7.32;;;23.30;47.50;;;;;;6259432;27;80795;-61
2022/04/26 03:45:52;;;;;;;9.10;6.40;;;23.30;47.50;;;;;;6244094;27;80599;-61
2022/04/26 03:48:53;;;;;;;10.82;7.07;;;23.30;47.50;;;;;;6241436;27;80408;-61
2022/04/26 03:51:53;;;;;;;10.52;6.60;;;23.30;47.50;;;;;;6236548;27;80856;-61
2022/04/26 03:54:54;;;;;;;10.30;6.85;;;23.30;47.40;;;;;;6249358;27;81586;-61
2022/04/26 03:57:57;;;;;;;8.63;6.65;;;23.30;47.50;;;;;;6237466;27;80343;-61
2022/04/26 04:00:57;;;;;;;9.75;6.88;;;23.40;47.60;;;;;;6244901;27;86585;-61
2022/04/26 04:03:58;;;;;;;9.98;6.50;;;23.30;47.60;;;;;;6235992;27;80473;-61
2022/04/26 04:07:00;;;;;;;9.50;7.15;;;23.40;47.60;;;;;;6235753;27;81498;-60
2022/04/26 04:10:00;;;;;;;11.80;7.07;;;23.40;47.40;;;;;;6234987;27;80912;-61
2022/04/26 04:13:01;;;;;;;12.68;6.60;;;23.30;47.40;;;;;;6235394;27;81649;-61
2022/04/26 04:16:01;;;;;;;12.75;7.40;;;23.40;47.60;;;;;;6235094;27;80473;-60
2022/04/26 04:19:24;;;;;;;10.27;7.18;;;23.40;47.50;;;;;;6253369;27;80846;-61
2022/04/26 04:22:25;;;;;;;12.43;7.18;;;23.40;47.50;;;;;;6233287;27;86244;-61
2022/04/26 04:25:25;;;;;;;12.23;7.30;;;23.40;47.60;;;;;;6253293;27;80094;-62
2022/04/26 04:28:26;;;;;;;13.20;8.23;;;23.40;47.50;;;;;;6256187;28;82871;-62
2022/04/26 04:31:26;;;;;;;11.95;7.40;;;23.40;47.60;;;;;;6259601;27;81804;-63
2022/04/26 04:34:27;;;;;;;11.40;7.03;;;23.40;47.70;;;;;;6275850;27;80563;-65
2022/04/26 04:37:27;;;;;;;11.82;6.88;;;23.30;48.10;;;;;;6254438;27;80539;-64
2022/04/26 04:40:28;;;;;;;14.27;7.38;;;23.30;48.20;;;;;;6244006;27;81440;-63
2022/04/26 04:43:29;;;;;;;11.63;7.05;;;23.30;48.30;;;;;;6248796;27;80299;-68
2022/04/26 04:46:29;;;;;;;13.73;8.70;;;23.30;48.30;;;;;;6256172;27;82297;-66
2022/04/26 04:49:29;;;;;;;17.70;10.02;;;23.30;48.40;;;;;;6258666;27;81650;-62
2022/04/26 04:52:30;;;;;;;29.98;12.15;;;23.30;48.40;;;;;;6242064;27;82917;-63
2022/04/26 04:55:30;;;;;;;25.65;12.18;;;23.30;49.50;;;;;;6244212;27;82913;-63
2022/04/26 04:58:32;;;;;;;23.92;11.80;;;23.30;49.00;;;;;;6237417;27;83039;-61
2022/04/26 05:01:32;;;;;;;30.00;11.00;;;23.40;49.10;;;;;;6229448;28;84172;-63
2022/04/26 05:04:34;;;;;;;20.83;10.20;;;23.40;49.60;;;;;;6229673;27;84212;-64
2022/04/26 05:07:34;;;;;;;21.75;10.55;;;23.40;50.30;;;;;;6230311;27;83195;-62
2022/04/26 05:10:36;;;;;;;20.35;10.68;;;23.40;50.10;;;;;;6229761;27;83393;-62
2022/04/26 05:13:37;;;;;;;16.42;8.95;;;23.40;49.90;;;;;;6229811;27;83919;-62
2022/04/26 05:16:37;;;;;;;18.52;10.05;;;23.40;50.10;;;;;;6247436;27;83053;-62
2022/04/26 05:19:37;;;;;;;20.83;10.20;;;23.40;50.00;;;;;;6231575;27;84020;-62
2022/04/26 05:25:57;;;;;;;23.17;9.38;;;23.40;49.80;;;;;;6257827;27;82893;-66
2022/04/26 05:28:58;;;;;;;18.40;9.73;;;23.40;49.60;;;;;;6258269;27;81170;-67
2022/04/26 05:31:58;;;;;;;16.33;8.10;;;23.40;49.40;;;;;;6237339;27;80584;-63
2022/04/26 05:34:59;;;;;;;12.63;7.90;;;23.40;49.50;;;;;;6233340;27;80403;-63
2022/04/26 05:37:59;;;;;;;15.88;8.00;;;23.40;49.90;;;;;;6233349;27;83741;-64
2022/04/26 05:41:00;;;;;;;18.23;7.63;;;23.40;49.80;;;;;;6233706;27;80416;-63
2022/04/26 05:44:00;;;;;;;14.52;7.78;;;23.50;49.60;;;;;;6218401;27;80919;-62
2022/04/26 05:47:02;;;;;;;13.05;7.57;;;23.50;49.50;;;;;;6232764;27;81203;-62
2022/04/26 05:50:02;;;;;;;13.75;7.20;;;23.50;49.60;;;;;;6232752;28;81684;-62
2022/04/26 05:53:03;;;;;;;15.40;7.60;;;23.50;49.50;;;;;;6255452;27;80463;-63
2022/04/26 05:56:05;;;;;;;14.82;7.50;;;23.50;49.50;;;;;;6243630;27;81987;-64
2022/04/26 05:59:06;;;;;;;14.63;7.10;;;23.50;49.40;;;;;;6243084;27;80756;-63
2022/04/26 06:02:06;;;;;;;11.88;7.00;;;23.50;49.30;;;;;;6236562;27;80414;-63
2022/04/26 06:05:07;;;;;;;12.80;7.75;;;23.50;49.40;;;;;;6236671;27;80326;-63
2022/04/26 06:08:08;;;;;;;11.07;6.43;;;23.50;49.40;;;;;;6234156;28;80556;-63
2022/04/26 06:11:09;;;;;;;11.95;7.22;;;23.50;49.40;;;;;;6235571;27;80487;-63
2022/04/26 06:14:09;;;;;;;19.08;9.82;;;23.50;49.70;;;;;;6232817;28;80411;-63
2022/04/26 06:17:10;;;;;;;25.33;13.32;;;23.50;50.40;;;;;;6238107;27;81940;-63
2022/04/26 06:20:10;;;;;;;39.55;19.65;;;23.50;50.70;;;;;;6229600;27;83027;-63
2022/04/26 06:23:11;;;;;;;48.75;21.45;;;23.50;51.10;;;;;;6228405;28;83054;-63
2022/04/26 06:26:11;;;;;;;46.80;19.13;;;23.50;51.40;;;;;;6232277;27;82986;-63
2022/04/26 06:29:12;;;;;;;43.67;21.60;;;23.50;51.50;;;;;;6249976;27;83119;-63
2022/04/26 06:32:13;;;;;;;46.08;20.52;;;23.50;50.90;;;;;;6231684;28;89727;-64
2022/04/26 06:35:13;;;;;;;36.47;20.38;;;23.50;51.10;;;;;;6228800;27;83207;-64
2022/04/26 06:38:14;;;;;;;39.60;19.67;;;23.60;49.90;;;;;;6229417;27;84051;-64
2022/04/26 06:41:15;;;;;;;29.98;17.75;;;23.50;49.70;;;;;;6228007;27;82898;-64
2022/04/26 06:44:16;;;;;;;27.95;16.00;;;23.50;49.50;;;;;;6233556;27;84505;-73
2022/04/26 06:47:16;;;;;;;29.52;16.13;;;23.40;48.50;;;;;;6245681;27;83288;-63
2022/04/26 06:50:17;;;;;;;29.70;15.48;;;23.50;48.50;;;;;;6251409;27;84111;-62
2022/04/26 06:53:17;;;;;;;32.75;15.38;;;23.40;48.30;;;;;;6240021;27;84094;-63
2022/04/26 06:56:18;;;;;;;28.95;16.63;;;23.40;48.40;;;;;;6238589;27;82702;-62
2022/04/26 06:59:18;;;;;;;26.10;15.32;;;23.40;47.10;;;;;;6232446;27;83264;-70
2022/04/26 07:02:20;;;;;;;29.00;14.48;;;23.40;46.50;;;;;;6238945;28;83303;-68
2022/04/26 07:05:22;;;;;;;23.38;13.35;;;23.30;46.60;;;;;;6257503;27;83101;-72
2022/04/26 07:08:22;;;;;;;27.38;14.50;;;23.30;46.70;;;;;;6241408;27;83235;-64
2022/04/26 07:11:23;;;;;;;23.17;13.90;;;23.30;46.70;;;;;;6214126;28;84362;-63
2022/04/26 07:14:23;;;;;;;22.33;14.57;;;23.30;46.60;;;;;;6232539;27;83503;-62
2022/04/26 07:17:24;;;;;;;27.20;15.35;;;23.30;46.50;;;;;;6237922;27;83892;-62
2022/04/26 07:20:26;;;;;;;25.33;13.20;;;23.30;46.30;;;;;;6257180;27;84200;-62
2022/04/26 07:23:27;;;;;;;29.50;15.50;;;23.20;46.50;;;;;;6243503;27;84246;-63
2022/04/26 07:26:27;;;;;;;24.90;14.25;;;23.20;46.50;;;;;;6231609;27;83391;-63
2022/04/26 07:29:28;;;;;;;22.27;15.20;;;23.20;46.40;;;;;;6232173;27;83448;-63
2022/04/26 07:35:47;;;;;;;23.42;15.40;;;23.20;46.30;;;;;;6257317;27;84696;-64
2022/04/26 07:38:48;;;;;;;24.20;15.40;;;23.10;46.20;;;;;;6249247;28;84113;-63
2022/04/26 07:41:49;;;;;;;33.67;18.02;;;23.10;45.80;;;;;;6240042;27;82922;-64
2022/04/26 07:44:49;;;;;;;29.05;16.40;;;23.10;45.50;;;;;;6246241;27;83005;-64
2022/04/26 07:47:50;;;;;;;27.67;15.68;;;23.10;45.40;;;;;;6256462;27;83461;-63
2022/04/26 07:50:51;;;;;;;21.88;15.40;;;23.10;45.40;;;;;;6257018;27;83047;-62
2022/04/26 07:53:51;;;;;;;25.40;16.33;;;23.00;45.30;;;;;;6255208;27;83170;-63
2022/04/26 07:56:52;;;;;;;28.30;15.77;;;23.00;45.60;;;;;;6255330;27;83533;-65
2022/04/26 07:59:52;;;;;;;28.35;15.18;;;23.00;45.50;;;;;;6250563;27;83139;-64
2022/04/26 08:02:53;;;;;;;30.15;15.10;;;23.00;45.60;;;;;;6234853;28;84109;-62
2022/04/26 08:05:54;;;;;;;25.08;15.75;;;22.90;45.50;;;;;;6256176;27;83111;-62
2022/04/26 08:08:54;;;;;;;24.55;16.00;;;23.00;45.40;;;;;;6245966;27;83130;-63
2022/04/26 08:11:55;;;;;;;25.90;16.75;;;22.90;45.30;;;;;;6231144;27;84393;-63
2022/04/26 08:14:55;;;;;;;23.98;14.07;;;23.00;45.30;;;;;;6231408;27;83577;-62
2022/04/26 08:17:56;;;;;;;23.35;15.55;;;23.00;45.40;;;;;;6230068;28;84323;-62
2022/04/26 08:20:56;;;;;;;24.60;15.35;;;22.90;45.20;;;;;;6238968;28;83216;-62
2022/04/26 08:27:22;;;;;;;181.70;82.20;;;23.00;45.10;;;;;;6231865;27;83456;-62
2022/04/26 08:30:23;;;;;;;339.08;144.48;;;23.00;45.00;;;;;;6232168;28;82840;-62
2022/04/26 08:33:23;;;;;;;280.45;123.50;;;23.00;44.90;;;;;;6229493;27;85736;-63
2022/04/26 08:36:24;;;;;;;199.65;88.53;;;23.00;45.00;;;;;;6247002;27;86062;-62
2022/04/26 08:39:24;;;;;;;177.25;80.70;;;23.00;45.40;;;;;;6231713;27;85403;-63
2022/04/26 08:42:25;;;;;;;179.55;77.18;;;23.10;45.40;;;;;;6235103;27;83099;-63
2022/04/26 08:45:25;;;;;;;170.77;78.15;;;23.20;45.40;;;;;;6248497;27;84159;-64
2022/04/26 08:51:45;;;;;;;151.70;68.32;;;23.30;45.40;;;;;;6231440;27;83197;-63
2022/04/26 08:54:46;;;;;;;144.98;63.45;;;23.40;45.50;;;;;;6230924;27;82805;-64
2022/04/26 08:57:46;;;;;;;131.25;63.05;;;23.40;45.50;;;;;;6240488;28;83189;-67
2022/04/26 09:00:47;;;;;;;136.13;61.50;;;23.50;45.80;;;;;;6239360;27;83191;-62
2022/04/26 09:03:54;;;;;;;134.05;60.17;;;23.50;45.70;;;;;;6229491;28;83038;-62
2022/04/26 09:06:54;;;;;;;129.45;59.75;;;23.50;45.60;;;;;;6232686;27;84125;-62
2022/04/26 09:09:55;;;;;;;119.57;53.00;;;23.50;45.50;;;;;;6230193;27;83370;-62
2022/04/26 09:12:56;;;;;;;123.30;53.72;;;23.60;45.80;;;;;;6231037;27;83132;-63
2022/04/26 09:15:56;;;;;;;117.25;52.85;;;23.60;45.70;;;;;;6230677;27;83620;-72
2022/04/26 09:18:57;;;;;;;107.38;49.63;;;23.60;46.40;;;;;;6245007;28;83598;-62
2022/04/26 09:22:00;;;;;;;107.80;49.83;;;23.70;45.70;;;;;;6255114;27;84217;-62
2022/04/26 09:25:04;;;;;;;105.60;45.67;;;23.70;45.80;;;;;;6243400;27;83465;-63
2022/04/26 09:28:06;;;;;;;95.70;45.50;;;23.60;45.70;;;;;;6255249;27;83277;-62
2022/04/26 09:31:07;;;;;;;98.60;43.33;;;23.70;45.80;;;;;;6253219;27;84311;-62
2022/04/26 09:34:08;;;;;;;84.72;41.28;;;23.70;45.80;;;;;;6228610;27;84045;-61
2022/04/26 09:37:08;;;;;;;84.15;40.33;;;23.70;45.90;;;;;;6248662;27;83690;-61
2022/04/26 09:40:09;;;;;;;78.97;37.88;;;23.70;46.20;;;;;;6232021;27;82855;-61
2022/04/26 09:43:10;;;;;;;75.60;38.30;;;23.70;46.10;;;;;;6230055;28;83344;-76
2022/04/26 09:46:10;;;;;;;85.13;38.35;;;23.80;46.20;;;;;;6235657;28;82979;-64
2022/04/26 09:49:11;;;;;;;72.30;35.67;;;23.70;46.20;;;;;;6230323;27;83096;-62
2022/04/26 09:52:13;;;;;;;70.40;34.35;;;23.70;46.30;;;;;;6237581;27;83630;-64
2022/04/26 09:55:14;;;;;;;69.05;32.58;;;23.80;46.50;;;;;;6247114;27;82729;-61
2022/04/26 09:58:14;;;;;;;65.18;31.75;;;23.80;46.30;;;;;;6229812;27;83100;-62
2022/04/26 10:01:15;;;;;;;67.00;32.17;;;23.70;46.40;;;;;;6228179;28;83072;-62
2022/04/26 10:04:15;;;;;;;61.83;30.08;;;23.80;46.60;;;;;;6229536;28;83142;-62
2022/04/26 10:07:16;;;;;;;67.03;30.77;;;23.80;46.60;;;;;;6229693;27;83523;-62
2022/04/26 10:10:16;;;;;;;62.72;30.42;;;23.80;46.60;;;;;;6229197;28;82783;-62
2022/04/26 10:13:32;;;;;;;57.85;26.67;;;23.80;46.50;;;;;;6229427;28;83576;-62
2022/04/26 10:16:33;;;;;;;54.33;27.83;;;23.80;46.50;;;;;;6239302;27;87442;-62
2022/04/26 10:19:33;;;;;;;53.42;26.60;;;23.80;46.40;;;;;;6254642;27;83248;-64
2022/04/26 10:22:34;;;;;;;50.83;25.63;;;23.70;46.50;;;;;;6246836;27;83994;-63
2022/04/26 10:25:35;;;;;;;52.97;24.38;;;23.70;46.50;;;;;;6252490;27;84434;-63
2022/04/26 10:28:36;;;;;;;49.67;23.98;;;23.70;46.40;;;;;;6254139;27;84378;-63
2022/04/26 10:31:37;;;;;;;44.85;24.20;;;23.80;46.60;;;;;;6232389;27;83445;-63
2022/04/26 10:34:39;;;;;;;45.80;23.10;;;23.80;46.30;;;;;;6233357;28;88909;-63
2022/04/26 10:37:39;;;;;;;43.08;23.23;;;23.80;46.10;;;;;;6249454;27;84025;-63
2022/04/26 10:40:40;;;;;;;46.75;21.95;;;23.90;46.30;;;;;;6258596;27;83789;-63
2022/04/26 10:43:42;;;;;;;40.38;21.27;;;23.90;46.20;;;;;;6258059;27;82845;-62
2022/04/26 10:46:42;;;;;;;43.78;21.23;;;23.90;46.20;;;;;;6251321;27;82995;-62
2022/04/26 10:49:43;;;;;;;38.70;19.58;;;23.80;46.20;;;;;;6235621;27;84300;-62
2022/04/26 10:52:43;;;;;;;41.45;21.63;;;23.90;46.20;;;;;;6237254;27;82926;-61
2022/04/26 10:55:44;;;;;;;42.40;20.55;;;23.90;46.30;;;;;;6235702;27;82797;-61
2022/04/26 10:58:45;;;;;;;44.58;20.50;;;23.90;46.50;;;;;;6237695;27;83054;-62
2022/04/26 11:01:45;;;;;;;36.33;19.45;;;23.90;46.90;;;;;;6233026;27;82992;-60
2022/04/26 11:04:46;;;;;;;40.28;22.08;;;23.90;47.40;;;;;;6238105;28;83023;-61
2022/04/26 11:07:46;;;;;;;40.28;21.25;;;23.90;47.30;;;;;;6237093;27;83962;-62
2022/04/26 11:11:07;;;;;;;38.63;19.75;;;23.90;47.90;;;;;;6237230;27;84110;-61
2022/04/26 11:14:07;;;;;;;50.03;22.60;;;23.90;48.70;;;;;;6240869;28;84018;-62
2022/04/26 11:17:08;;;;;;;40.95;21.48;;;23.90;49.50;;;;;;6235285;27;83529;-63
2022/04/26 11:20:09;;;;;;;45.28;23.50;;;23.90;49.20;;;;;;6232498;27;83955;-63
2022/04/26 11:29:52;;;;;;;34.83;18.52;;;23.90;50.00;;;;;;6247417;27;84017;-63
2022/04/26 11:32:53;;;;;;;35.17;19.40;;;23.90;50.30;;;;;;6235326;28;83579;-63
2022/04/26 11:35:53;;;;;;;35.58;18.88;;;23.90;50.30;;;;;;6239886;27;83427;-62
2022/04/26 11:38:54;;;;;;;30.02;17.38;;;23.90;50.40;;;;;;6231662;27;84688;-63
2022/04/26 11:41:54;;;;;;;30.08;17.52;;;23.90;50.30;;;;;;6241519;28;83624;-61
2022/04/26 11:44:55;;;;;;;34.95;17.30;;;23.90;50.00;;;;;;6231748;27;83169;-61
2022/04/26 11:47:55;;;;;;;31.05;17.30;;;23.90;49.90;;;;;;6236668;27;83187;-60
2022/04/26 11:50:56;;;;;;;29.92;18.15;;;24.00;49.80;;;;;;6236669;27;82927;-61
2022/04/26 11:53:57;;;;;;;32.65;17.33;;;24.00;49.60;;;;;;6231739;27;84909;-61
2022/04/26 11:56:57;;;;;;;27.90;16.67;;;24.00;49.20;;;;;;6244466;27;83091;-61
2022/04/26 11:59:58;;;;;;;26.55;17.00;;;23.90;49.30;;;;;;6254850;27;84947;-63
2022/04/26 12:02:58;;;;;;;28.20;14.95;;;23.90;49.30;;;;;;6249713;27;85080;-63
2022/04/26 12:05:59;;;;;;;30.88;17.10;;;24.00;49.10;;;;;;6232458;27;83062;-61
2022/04/26 12:08:59;;;;;;;26.30;16.05;;;24.00;48.90;;;;;;6231743;27;82999;-60
2022/04/26 12:12:01;;;;;;;31.92;16.00;;;24.00;48.70;;;;;;6243793;27;84686;-60
2022/04/26 12:15:04;;;;;;;26.33;14.65;;;24.00;48.60;;;;;;6255900;27;83156;-60
2022/04/26 12:18:05;;;;;;;27.52;15.02;;;24.00;48.50;;;;;;6234867;27;84268;-61
2022/04/26 12:21:05;;;;;;;28.38;15.70;;;24.00;48.90;;;;;;6256589;27;83215;-62
2022/04/26 12:24:06;;;;;;;25.08;14.18;;;24.00;48.20;;;;;;6245721;27;83876;-62
2022/04/26 12:27:07;;;;;;;22.60;14.02;;;24.00;48.10;;;;;;6249927;27;84804;-66
2022/04/26 12:30:07;;;;;;;23.35;13.20;;;24.00;48.20;;;;;;6235965;28;83193;-61
2022/04/26 12:33:08;;;;;;;25.13;13.73;;;24.00;48.30;;;;;;6232071;28;84184;-61
2022/04/26 12:36:08;;;;;;;23.83;14.02;;;24.00;48.30;;;;;;6256677;27;83518;-62
2022/04/26 12:39:09;;;;;;;19.08;12.73;;;24.00;48.30;;;;;;6251050;27;82937;-62
2022/04/26 12:42:09;;;;;;;21.63;13.13;;;24.00;48.30;;;;;;6231493;27;83820;-62
2022/04/26 12:45:10;;;;;;;25.38;13.90;;;24.00;48.40;;;;;;6231459;27;83282;-62
2022/04/26 12:51:29;;;;;;;23.13;12.27;;;24.00;48.20;;;;;;6230597;27;83392;-62
2022/04/26 12:54:30;;;;;;;20.38;12.07;;;24.00;48.10;;;;;;6228955;27;83178;-63
2022/04/26 12:57:30;;;;;;;22.42;12.10;;;24.00;48.10;;;;;;6240755;28;83528;-63
2022/04/26 13:00:31;;;;;;;25.27;11.85;;;24.00;48.10;;;;;;6251299;27;83716;-64
2022/04/26 13:03:31;;;;;;;26.83;13.73;;;24.00;48.10;;;;;;6237968;27;83099;-66
2022/04/26 13:06:32;;;;;;;25.83;11.95;;;24.00;48.00;;;;;;6231018;27;83144;-65
2022/04/26 13:09:32;;;;;;;22.27;12.10;;;24.00;48.00;;;;;;6235511;27;82982;-65
2022/04/26 13:12:33;;;;;;;19.77;12.10;;;24.00;47.90;;;;;;6235420;28;83283;-64
2022/04/26 13:15:34;;;;;;;20.85;11.27;;;24.00;47.80;;;;;;6243182;27;83184;-65
2022/04/26 13:18:34;;;;;;;17.65;11.48;;;24.00;47.60;;;;;;6255956;27;83007;-66
2022/04/26 13:21:35;;;;;;;18.30;10.80;;;24.00;47.10;;;;;;6232116;28;84078;-66
2022/04/26 13:24:35;;;;;;;16.85;10.68;;;24.00;47.10;;;;;;6230212;28;83058;-67
2022/04/26 13:27:37;;;;;;;21.63;10.43;;;24.00;47.00;;;;;;6228990;28;82827;-65
2022/04/26 13:30:37;;;;;;;17.58;9.65;;;24.00;46.70;;;;;;6236291;27;84141;-66
2022/04/26 13:33:39;;;;;;;17.40;10.60;;;24.00;46.60;;;;;;6258989;27;83302;-68
2022/04/26 13:36:39;;;;;;;17.60;10.32;;;24.00;46.60;;;;;;6237634;27;82793;-67
2022/04/26 13:39:40;;;;;;;15.32;10.52;;;24.00;46.70;;;;;;6232662;28;83104;-67
2022/04/26 13:42:40;;;;;;;15.93;9.93;;;24.00;46.30;;;;;;6254552;27;82897;-66
2022/04/26 13:45:41;;;;;;;16.13;10.07;;;24.00;46.50;;;;;;6256373;27;84725;-66
2022/04/26 13:48:41;;;;;;;16.05;10.05;;;24.00;46.40;;;;;;6255540;27;83028;-67
2022/04/26 13:51:42;;;;;;;12.35;8.95;;;24.00;46.40;;;;;;6245499;27;83200;-65
2022/04/26 13:54:42;;;;;;;15.23;9.60;;;24.00;46.30;;;;;;6274747;27;82988;-65
2022/04/26 13:57:44;;;;;;;21.33;11.68;;;24.00;46.30;;;;;;6239679;27;82216;-65
2022/04/26 14:00:44;;;;;;;125.22;57.97;;;24.00;46.40;;;;;;6212260;28;83008;-63
2022/04/26 14:03:45;;;;;;;212.13;104.68;;;24.00;46.40;;;;;;6231494;28;83252;-65
2022/04/26 14:06:46;;;;;;;148.07;71.55;;;24.00;46.30;;;;;;6250106;27;85746;-64
2022/04/26 14:09:46;;;;;;;162.45;76.25;;;24.00;46.00;;;;;;6254157;27;86946;-65
2022/04/26 14:12:47;;;;;;;158.07;72.43;;;24.00;46.00;;;;;;6231710;28;83302;-64
2022/04/26 14:22:30;;;;;;;112.05;54.75;;;24.00;45.50;;;;;;6234022;27;89903;-65
2022/04/26 14:25:31;;;;;;;161.43;75.10;;;24.00;45.10;;;;;;6231278;27;83138;-65
2022/04/26 14:28:32;;;;;;;199.75;92.07;;;24.00;44.90;;;;;;6230770;27;83407;-65
2022/04/26 14:31:32;;;;;;;240.60;112.43;;;24.00;44.70;;;;;;6229219;27;83514;-64
2022/04/26 14:34:33;;;;;;;233.13;106.32;;;24.00;44.50;;;;;;6235446;27;85826;-65
2022/04/26 14:37:33;;;;;;;208.27;96.97;;;24.00;44.60;;;;;;6246461;27;86587;-66
2022/04/26 14:40:34;;;;;;;193.57;87.07;;;24.00;44.40;;;;;;6254510;27;87050;-65
2022/04/26 14:43:36;;;;;;;156.32;73.38;;;24.00;44.50;;;;;;6229813;27;83164;-64
2022/04/26 14:46:36;;;;;;;149.63;71.72;;;24.00;44.50;;;;;;6238847;27;83224;-63
2022/04/26 14:49:37;;;;;;;125.72;58.10;;;24.00;44.40;;;;;;6229569;28;83216;-63
2022/04/26 14:52:38;;;;;;;120.82;52.58;;;24.00;44.20;;;;;;6244017;27;82795;-62
2022/04/26 14:55:38;;;;;;;103.28;47.22;;;24.00;44.10;;;;;;6242592;28;84147;-63
2022/04/26 14:58:39;;;;;;;94.68;43.05;;;24.00;44.10;;;;;;6251726;27;82976;-64
2022/04/26 15:01:45;;;;;;;83.22;40.10;;;23.90;44.10;;;;;;6253944;27;82888;-63
2022/04/26 15:04:47;;;;;;;62.95;32.55;;;23.90;44.40;;;;;;6229663;28;83289;-63
2022/04/26 15:11:07;;;;;;;58.58;29.10;;;23.90;44.20;;;;;;6228293;28;84447;-62
2022/04/26 15:17:27;;;;;;;52.95;26.20;;;23.90;44.80;;;;;;6229690;28;84409;-63
2022/04/26 15:20:27;;;;;;;54.80;25.77;;;23.90;45.10;;;;;;6265903;27;83416;-62
2022/04/26 15:23:28;;;;;;;46.25;23.92;;;23.90;45.70;;;;;;6243478;27;84029;-60
2022/04/26 15:26:29;;;;;;;44.95;22.58;;;24.00;45.90;;;;;;6233621;27;83113;-63
2022/04/26 15:29:31;;;;;;;48.67;23.23;;;24.00;45.90;;;;;;6231621;28;84229;-63
2022/04/26 15:32:32;;;;;;;43.35;22.42;;;24.00;45.90;;;;;;6232878;27;83319;-61
2022/04/26 15:35:32;;;;;;;40.45;21.15;;;24.10;45.80;;;;;;6232672;27;84322;-61
2022/04/26 15:38:33;;;;;;;38.28;20.33;;;24.00;45.70;;;;;;6247581;27;83137;-62
2022/04/26 15:41:33;;;;;;;42.22;21.10;;;24.00;45.90;;;;;;6257992;27;84020;-62
2022/04/26 15:44:34;;;;;;;41.42;19.83;;;24.10;46.10;;;;;;6255999;27;84653;-61
2022/04/26 15:47:35;;;;;;;38.80;20.10;;;24.10;46.00;;;;;;6232576;27;83541;-62
2022/04/26 15:50:36;;;;;;;37.97;19.23;;;24.10;46.20;;;;;;6232677;27;83233;-62
2022/04/26 15:53:36;;;;;;;33.38;16.95;;;24.10;46.10;;;;;;6237399;27;83730;-63
2022/04/26 15:56:37;;;;;;;31.27;16.30;;;24.00;45.90;;;;;;6249317;27;83847;-63
2022/04/26 15:59:38;;;;;;;30.23;15.95;;;24.00;45.90;;;;;;6255331;28;85355;-62
2022/04/26 16:02:40;;;;;;;26.55;14.73;;;24.10;45.90;;;;;;6257160;27;84088;-62
2022/04/26 16:05:42;;;;;;;23.88;13.20;;;24.00;45.80;;;;;;6257346;27;83053;-62
2022/04/26 16:08:43;;;;;;;20.77;11.65;;;24.10;45.60;;;;;;6244962;27;83455;-61
2022/04/26 16:21:41;;;;;;;13.25;8.05;;;24.00;44.30;;;;;;6260557;27;80575;-61
2022/04/26 16:24:42;;;;;;;16.13;7.47;;;24.00;44.00;;;;;;6260335;27;82415;-60
2022/04/26 16:27:42;;;;;;;20.33;8.07;;;24.00;44.40;;;;;;6260554;27;80943;-61
2022/04/26 16:30:43;;;;;;;14.07;7.30;;;24.00;44.60;;;;;;6236280;27;80493;-61
2022/04/26 16:33:44;;;;;;;14.57;8.43;;;24.00;44.90;;;;;;6235273;27;80917;-62
2022/04/26 16:36:45;;;;;;;12.93;6.88;;;24.00;45.10;;;;;;6235407;27;80306;-62
2022/04/26 16:39:46;;;;;;;12.40;7.45;;;24.00;45.30;;;;;;6249906;27;80578;-62
2022/04/26 16:42:46;;;;;;;14.02;7.32;;;24.10;44.90;;;;;;6260139;27;80406;-61
2022/04/26 16:45:49;;;;;;;11.13;6.35;;;24.10;45.00;;;;;;6237392;27;80403;-61
2022/04/26 16:48:49;;;;;;;10.43;6.65;;;24.00;45.20;;;;;;6240355;27;80184;-65
2022/04/26 16:51:50;;;;;;;10.57;6.43;;;24.00;45.40;;;;;;6256737;27;80502;-65
2022/04/26 16:54:50;;;;;;;11.23;7.15;;;24.00;45.60;;;;;;6257484;27;80965;-68
2022/04/26 16:57:51;;;;;;;15.52;6.75;;;24.00;45.80;;;;;;6258572;27;82090;-69
2022/04/26 17:00:51;;;;;;;11.27;6.18;;;24.00;45.90;;;;;;6254557;27;80531;-67
2022/04/26 17:03:52;;;;;;;12.38;5.90;;;24.00;45.90;;;;;;6258502;27;80433;-67
2022/04/26 17:06:53;;;;;;;13.60;6.82;;;24.00;45.90;;;;;;6255062;27;80795;-64
2022/04/26 17:09:53;;;;;;;11.43;6.45;;;24.00;45.80;;;;;;6237843;27;80609;-64
2022/04/26 17:12:54;;;;;;;19.98;5.82;;;24.00;46.10;;;;;;6236940;27;83488;-64
2022/04/26 17:15:54;;;;;;;14.80;6.05;;;24.00;45.90;;;;;;6246975;27;80435;-67
2022/04/26 17:18:55;;;;;;;14.80;6.20;;;24.00;46.20;;;;;;6250772;27;80909;-66
2022/04/26 17:21:56;;;;;;;11.57;6.43;;;24.10;45.60;;;;;;6250567;27;80757;-65
2022/04/26 17:25:15;;;;;;;11.55;6.00;;;24.10;45.50;;;;;;6251816;27;80581;-72
2022/04/26 17:28:16;;;;;;;10.40;6.18;;;24.10;45.30;;;;;;6237275;27;80395;-66
2022/04/26 17:31:17;;;;;;;9.57;6.20;;;24.00;45.20;;;;;;6254422;27;80640;-64
2022/04/26 17:34:18;;;;;;;9.15;5.65;;;24.00;45.20;;;;;;6259277;27;80475;-67
2022/04/26 17:37:18;;;;;;;10.15;6.03;;;24.00;45.60;;;;;;6257489;27;87105;-64
2022/04/26 17:40:20;;;;;;;8.07;5.43;;;24.00;45.50;;;;;;6237981;27;80291;-63
2022/04/26 17:43:21;;;;;;;13.48;6.90;;;24.00;45.70;;;;;;6235363;27;81723;-62
2022/04/26 17:46:22;;;;;;;8.93;5.70;;;24.00;45.70;;;;;;6241428;27;80755;-62
2022/04/26 17:49:23;;;;;;;9.38;5.43;;;24.00;45.80;;;;;;6232732;28;80720;-63
2022/04/26 17:52:25;;;;;;;7.85;5.13;;;24.00;45.80;;;;;;6243888;28;80287;-62
2022/04/26 17:58:44;;;;;;;9.10;5.65;;;24.00;46.70;;;;;;6233450;27;80461;-62
2022/04/26 18:01:45;;;;;;;11.70;6.13;;;24.00;46.80;;;;;;6251370;27;80864;-64
2022/04/26 18:04:45;;;;;;;8.88;5.15;;;24.00;46.60;;;;;;6258242;27;81462;-63
2022/04/26 18:07:46;;;;;;;8.25;5.25;;;24.00;46.70;;;;;;6233777;27;80524;-63
2022/04/26 18:10:47;;;;;;;11.90;6.00;;;24.00;46.60;;;;;;6232988;28;80598;-61
2022/04/26 18:13:52;;;;;;;7.63;5.20;;;24.00;46.50;;;;;;6233432;27;80324;-63
2022/04/26 18:16:52;;;;;;;8.75;5.07;;;24.00;46.50;;;;;;6233138;27;80167;-62
2022/04/26 18:19:54;;;;;;;10.48;5.10;;;24.10;46.60;;;;;;6233256;27;80493;-63
2022/04/26 18:22:55;;;;;;;9.45;5.43;;;24.10;47.20;;;;;;6233160;28;81065;-63
2022/04/26 18:26:11;;;;;;;13.10;5.95;;;24.00;47.20;;;;;;6233352;27;80870;-62
2022/04/26 18:29:19;;;;;;;8.45;5.32;;;23.90;47.50;;;;;;6234048;27;80331;-64
2022/04/26 18:32:20;;;;;;;13.10;5.38;;;24.00;47.70;;;;;;6248592;27;80543;-63
2022/04/26 18:35:20;;;;;;;10.85;5.57;;;24.00;47.70;;;;;;6214764;28;82158;-63
2022/04/26 18:38:21;;;;;;;9.82;6.30;;;23.90;47.70;;;;;;6233035;28;80765;-62
2022/04/26 18:41:22;;;;;;;8.73;5.65;;;23.90;47.60;;;;;;6230385;27;81771;-63
2022/04/26 18:44:23;;;;;;;10.10;5.43;;;23.90;47.40;;;;;;6232329;27;80817;-63
2022/04/26 18:47:24;;;;;;;17.75;6.68;;;23.90;47.30;;;;;;6247862;27;80526;-63
2022/04/26 18:50:24;;;;;;;8.95;6.05;;;23.90;47.60;;;;;;6256093;27;82114;-62
2022/04/26 18:53:25;;;;;;;12.30;6.30;;;23.90;47.40;;;;;;6246347;27;80612;-62
2022/04/26 18:56:26;;;;;;;10.43;6.53;;;23.90;47.40;;;;;;6240997;27;80596;-62
2022/04/26 18:59:27;;;;;;;12.00;6.63;;;23.90;47.30;;;;;;6246502;27;80490;-62
2022/04/26 19:02:27;;;;;;;11.25;6.28;;;23.90;47.20;;;;;;6240906;27;80997;-62
2022/04/26 19:05:28;;;;;;;10.07;6.28;;;23.90;47.30;;;;;;6237001;27;80279;-63
2022/04/26 19:08:28;;;;;;;13.27;7.03;;;23.90;47.20;;;;;;6238628;28;81898;-62
2022/04/26 19:14:48;;;;;;;10.77;6.43;;;23.90;47.20;;;;;;6246778;27;80870;-62
2022/04/26 19:17:49;;;;;;;11.02;6.53;;;23.90;47.10;;;;;;6236994;27;81411;-62
2022/04/26 19:20:50;;;;;;;10.43;6.57;;;23.90;46.80;;;;;;6237664;27;80477;-61
2022/04/26 19:23:51;;;;;;;12.32;7.50;;;23.90;47.00;;;;;;6236089;28;81466;-62
2022/04/26 19:26:52;;;;;;;14.93;7.88;;;23.90;47.10;;;;;;6238160;28;80776;-62
2022/04/26 19:29:52;;;;;;;10.93;6.88;;;23.90;47.10;;;;;;6250208;27;83418;-62
2022/04/26 19:32:53;;;;;;;10.93;7.30;;;23.90;46.90;;;;;;6238018;27;80406;-62
2022/04/26 19:35:53;;;;;;;13.40;7.25;;;23.90;47.00;;;;;;6237840;27;81519;-61
2022/04/26 19:38:54;;;;;;;9.45;6.45;;;23.90;46.70;;;;;;6244815;27;81376;-62
2022/04/26 19:41:54;;;;;;;17.70;7.28;;;23.80;46.60;;;;;;6235532;27;81116;-62
2022/04/26 19:44:55;;;;;;;12.30;7.85;;;23.90;46.70;;;;;;6235619;27;82004;-63
2022/04/26 19:47:55;;;;;;;9.70;6.47;;;23.80;46.60;;;;;;6235159;27;81289;-61
2022/04/26 19:54:15;;;;;;;14.02;7.70;;;23.90;46.40;;;;;;6238370;27;80551;-61